createdAt,value
2023-03-26T00:01:48.046Z,6.49
2023-03-26T00:04:19.991Z,6.23
2023-03-26T00:06:49.203Z,6.24
2023-03-26T00:09:18.771Z,6.23
2023-03-26T00:11:46.917Z,6.19
2023-03-26T00:14:18.048Z,6.22
2023-03-26T00:16:45.706Z,6.22
2023-03-26T00:19:14.075Z,6.18
2023-03-26T00:21:41.716Z,6.23
2023-03-26T00:24:15.366Z,6.32
2023-03-26T00:26:43.144Z,6.21
2023-03-26T00:29:12.096Z,6.03
2023-03-26T00:31:40.071Z,6.21
2023-03-26T00:34:08.636Z,6.18
2023-03-26T00:36:36.154Z,6.08
2023-03-26T00:39:06.803Z,5.97
2023-03-26T00:41:37.325Z,5.99
2023-03-26T00:44:05.288Z,5.92
2023-03-26T00:46:32.609Z,5.92
2023-03-26T00:49:02.044Z,6.05
2023-03-26T00:51:29.266Z,6.04
2023-03-26T00:53:58.173Z,6.07
2023-03-26T00:56:26.104Z,6.19
2023-03-26T00:58:53.597Z,6.12
2023-03-26T01:01:29.389Z,6.30
2023-03-26T01:04:08.333Z,6.18
2023-03-26T01:06:39.154Z,6.20
2023-03-26T01:09:17.310Z,6.08
2023-03-26T01:11:45.163Z,6.04
2023-03-26T01:14:17.284Z,6.16
2023-03-26T01:16:52.634Z,6.25
2023-03-26T01:19:29.395Z,6.32
2023-03-26T01:21:59.139Z,6.44
2023-03-26T01:24:26.962Z,6.58
2023-03-26T01:27:09.859Z,6.84
2023-03-26T01:29:44.806Z,6.77
2023-03-26T01:32:33.283Z,6.80
2023-03-26T01:35:32.763Z,7.00
2023-03-26T01:38:02.696Z,7.15
2023-03-26T01:40:43.143Z,7.20
2023-03-26T01:43:42.178Z,7.19
2023-03-26T01:46:11.531Z,6.98
2023-03-26T01:48:42.448Z,7.13
2023-03-26T01:51:11.893Z,7.05
2023-03-26T01:53:47.869Z,7.08
2023-03-26T01:56:26.099Z,6.97
2023-03-26T01:59:05.088Z,7.17
2023-03-26T02:02:09.104Z,7.28
2023-03-26T02:05:01.756Z,7.31
2023-03-26T02:21:59.962Z,5.31
2023-03-26T02:24:29.435Z,5.45
2023-03-26T02:26:58.310Z,5.44
2023-03-26T02:29:28.877Z,5.58
2023-03-26T02:31:57.835Z,5.66
2023-03-26T02:34:32.984Z,5.63
2023-03-26T02:37:01.029Z,5.57
2023-03-26T02:39:29.997Z,5.75
2023-03-26T02:42:02.559Z,5.66
2023-03-26T02:44:33.174Z,5.70
2023-03-26T02:47:00.531Z,5.87
2023-03-26T02:49:46.926Z,5.92
2023-03-26T02:52:22.037Z,5.95
2023-03-26T02:54:51.309Z,5.96
2023-03-26T02:57:24.717Z,6.09
2023-03-26T03:00:16.970Z,5.96
2023-03-26T03:02:50.691Z,6.12
2023-03-26T03:05:34.025Z,6.06
2023-03-26T03:08:18.537Z,6.08
2023-03-26T03:11:25.081Z,6.13
2023-03-26T03:13:54.929Z,5.91
2023-03-26T03:16:26.047Z,6.09
2023-03-26T03:18:58.137Z,6.05
2023-03-26T03:21:37.444Z,6.10
2023-03-26T03:24:05.381Z,6.14
2023-03-26T03:26:38.025Z,6.08
2023-03-26T03:29:33.909Z,6.16
2023-03-26T03:32:25.917Z,6.05
2023-03-26T03:34:56.900Z,5.99
2023-03-26T03:37:27.620Z,6.03
2023-03-26T03:39:56.149Z,5.97
2023-03-26T03:42:27.754Z,5.95
2023-03-26T03:44:57.649Z,5.90
2023-03-26T03:47:54.742Z,5.83
2023-03-26T03:50:35.669Z,5.63
2023-03-26T03:53:20.276Z,5.62
2023-03-26T03:55:53.704Z,5.51
2023-03-26T03:58:28.412Z,5.48
2023-03-26T04:01:04.468Z,5.29
2023-03-26T04:03:54.072Z,5.26
2023-03-26T04:06:27.540Z,5.37
2023-03-26T04:08:55.080Z,5.29
2023-03-26T04:11:23.277Z,5.24
2023-03-26T04:14:24.498Z,5.22
2023-03-26T04:17:00.795Z,5.08
2023-03-26T04:19:30.526Z,5.11
2023-03-26T04:22:02.673Z,5.24
2023-03-26T04:24:40.260Z,5.32
2023-03-26T04:27:14.904Z,5.47
2023-03-26T04:29:47.032Z,5.57
2023-03-26T04:32:30.359Z,5.62
2023-03-26T04:35:01.552Z,5.65
2023-03-26T04:37:34.542Z,5.65
2023-03-26T04:40:14.308Z,5.61
2023-03-26T04:43:01.066Z,5.54
2023-03-26T04:45:54.096Z,5.59
2023-03-26T04:48:28.000Z,5.60
2023-03-26T04:50:55.973Z,5.54
2023-03-26T04:53:24.356Z,5.73
2023-03-26T04:56:26.792Z,5.73
2023-03-26T04:59:15.032Z,5.95
2023-03-26T05:01:46.151Z,5.97
2023-03-26T05:04:15.971Z,6.14
2023-03-26T05:06:43.898Z,6.18
2023-03-26T05:09:21.407Z,6.33
2023-03-26T05:12:07.624Z,6.49
2023-03-26T05:14:46.249Z,6.34
2023-03-26T05:17:21.529Z,6.38
2023-03-26T05:19:49.288Z,6.31
2023-03-26T05:22:17.755Z,6.32
2023-03-26T05:25:05.565Z,6.32
2023-03-26T05:27:33.712Z,6.32
2023-03-26T05:30:02.084Z,6.40
2023-03-26T05:32:34.092Z,6.40
2023-03-26T05:35:02.226Z,6.49
2023-03-26T05:37:31.218Z,6.40
2023-03-26T05:40:04.432Z,6.39
2023-03-26T05:42:51.503Z,6.49
2023-03-26T09:27:28.431Z,9.67
2023-03-26T09:30:15.757Z,9.86
2023-03-26T09:33:21.165Z,9.99
2023-03-26T09:35:57.364Z,10.36
2023-03-26T09:38:45.280Z,10.11
2023-03-26T09:41:43.933Z,10.37
2023-03-26T09:44:35.718Z,10.96
2023-03-26T09:47:37.636Z,10.50
2023-03-26T09:50:20.105Z,9.72
2023-03-26T09:52:55.658Z,9.14
2023-03-26T09:55:29.709Z,8.83
2023-03-26T09:58:00.514Z,8.56
2023-03-26T10:00:42.795Z,8.71
2023-03-26T10:03:44.476Z,8.82
2023-03-26T10:06:35.756Z,8.83
2023-03-26T10:09:20.992Z,8.80
2023-03-26T10:12:06.410Z,8.72
2023-03-26T10:14:51.088Z,8.98
2023-03-26T10:17:43.984Z,9.59
2023-03-26T10:20:50.791Z,10.02
2023-03-26T10:23:49.952Z,10.01
2023-03-26T10:26:39.156Z,9.61
2023-03-26T10:29:38.378Z,9.32
2023-03-26T10:32:31.885Z,9.10
2023-03-26T10:35:20.740Z,9.25
2023-03-26T10:38:26.496Z,9.26
2023-03-26T10:41:15.358Z,9.30
2023-03-26T10:44:05.573Z,9.26
2023-03-26T10:46:50.634Z,9.07
2023-03-26T10:50:02.646Z,8.92
2023-03-26T10:52:38.040Z,8.65
2023-03-26T10:55:38.014Z,8.64
2023-03-26T10:58:24.456Z,8.41
2023-03-26T11:01:05.925Z,8.53
2023-03-26T11:03:53.282Z,8.48
2023-03-26T11:06:31.031Z,8.47
2023-03-26T11:09:03.667Z,8.52
2023-03-26T11:11:51.492Z,8.70
2023-03-26T11:14:35.145Z,8.79
2023-03-26T11:17:40.678Z,8.95
2023-03-26T11:20:16.933Z,9.27
2023-03-26T11:23:02.933Z,9.66
2023-03-26T11:25:32.993Z,9.84
2023-03-26T11:28:39.048Z,10.24
2023-03-26T11:31:18.706Z,10.22
2023-03-26T11:33:53.053Z,10.25
2023-03-26T11:36:36.758Z,10.18
2023-03-26T11:39:10.549Z,10.10
2023-03-26T11:41:38.028Z,9.75
2023-03-26T11:44:34.567Z,9.73
2023-03-26T11:47:08.949Z,9.77
2023-03-26T11:49:37.757Z,9.74
2023-03-26T11:52:05.405Z,9.69
2023-03-26T11:54:33.971Z,9.58
2023-03-26T11:57:08.634Z,9.54
2023-03-26T11:59:56.983Z,9.54
2023-03-26T12:02:24.932Z,9.67
2023-03-26T12:04:57.272Z,9.64
2023-03-26T12:07:34.897Z,9.63
2023-03-26T12:10:19.013Z,9.66
2023-03-26T12:12:48.496Z,9.78
2023-03-26T12:15:21.520Z,9.60
2023-03-26T12:17:53.750Z,9.49
2023-03-26T12:20:32.469Z,9.45
2023-03-26T12:23:03.126Z,9.52
2023-03-26T12:25:35.620Z,9.50
2023-03-26T12:28:13.361Z,9.41
2023-03-26T12:30:45.199Z,9.30
2023-03-26T12:33:26.342Z,9.47
2023-03-26T12:35:58.505Z,9.57
2023-03-26T12:38:30.530Z,9.83
2023-03-26T12:44:43.383Z,9.96
2023-03-26T12:44:49.866Z,10.20
2023-03-26T12:47:58.101Z,10.25
2023-03-26T12:50:14.772Z,10.34
2023-03-26T12:53:15.088Z,10.50
2023-03-26T12:56:00.730Z,10.55
2023-03-26T12:58:51.574Z,10.49
2023-03-26T13:01:36.279Z,10.32
2023-03-26T13:04:30.266Z,10.28
2023-03-26T13:07:22.211Z,10.32
2023-03-26T13:10:10.985Z,10.49
2023-03-26T13:12:58.468Z,10.61
2023-03-26T13:15:36.704Z,10.66
2023-03-26T13:18:31.937Z,10.84
2023-03-26T13:21:02.179Z,10.90
2023-03-26T13:23:48.762Z,11.17
2023-03-26T13:26:28.584Z,11.51
2023-03-26T13:29:34.195Z,12.09
2023-03-26T13:32:20.516Z,12.28
2023-03-26T13:35:08.247Z,12.46
2023-03-26T13:38:04.706Z,12.71
2023-03-26T13:40:40.743Z,13.02
2023-03-26T13:43:23.902Z,12.40
2023-03-26T13:45:56.437Z,12.61
2023-03-26T13:48:28.691Z,13.12
2023-03-26T13:51:02.462Z,13.28
2023-03-26T13:53:42.140Z,13.27
2023-03-26T13:56:15.011Z,13.07
2023-03-26T13:58:48.973Z,12.86
2023-03-26T14:01:22.566Z,12.72
2023-03-26T14:04:06.990Z,12.41
2023-03-26T14:06:47.908Z,12.06
2023-03-26T14:09:32.765Z,12.11
2023-03-26T14:12:22.083Z,12.02
2023-03-26T14:14:59.444Z,12.28
2023-03-26T14:17:46.689Z,12.05
2023-03-26T14:20:32.049Z,12.26
2023-03-26T14:23:17.742Z,12.01
2023-03-26T14:26:10.804Z,11.62
2023-03-26T14:29:13.994Z,11.52
2023-03-26T14:31:56.861Z,11.19
2023-03-26T14:34:45.681Z,11.21
2023-03-26T14:37:58.768Z,11.03
2023-03-26T14:40:44.185Z,11.63
2023-03-26T14:43:47.184Z,12.12
2023-03-26T14:46:37.908Z,12.12
2023-03-26T14:49:40.529Z,11.96
2023-03-26T14:52:13.806Z,11.71
2023-03-26T14:54:49.687Z,12.01
2023-03-26T14:57:55.700Z,13.24
2023-03-26T15:01:04.013Z,12.98
2023-03-26T15:04:20.109Z,13.43
2023-03-26T15:06:59.680Z,12.56
2023-03-26T15:09:55.773Z,11.88
2023-03-26T15:13:17.708Z,11.46
2023-03-26T15:16:38.887Z,11.55
2023-03-26T15:19:30.637Z,11.52
2023-03-26T15:22:49.221Z,11.20
2023-03-26T15:25:48.072Z,11.39
2023-03-26T15:28:53.575Z,11.38
2023-03-26T15:31:47.928Z,11.24
2023-03-26T15:34:45.087Z,11.19
2023-03-26T15:37:34.514Z,10.88
2023-03-26T15:40:40.582Z,10.92
2023-03-26T15:43:19.454Z,11.03
2023-03-26T15:46:27.002Z,11.26
2023-03-26T15:49:05.536Z,11.52
2023-03-26T15:52:20.421Z,11.63
2023-03-26T15:55:14.650Z,11.61
2023-03-26T15:58:02.557Z,11.22
2023-03-26T16:00:36.419Z,10.85
2023-03-26T16:03:13.188Z,10.66
2023-03-26T16:05:48.000Z,10.48
2023-03-26T16:08:25.744Z,10.38
2023-03-26T16:11:04.362Z,10.13
2023-03-26T16:13:41.681Z,10.02
2023-03-26T16:16:16.398Z,9.89
2023-03-26T16:18:47.006Z,9.95
2023-03-26T16:21:36.791Z,10.21
2023-03-26T16:24:07.543Z,10.26
2023-03-26T16:26:54.701Z,10.29
2023-03-26T16:29:27.271Z,10.07
2023-03-26T16:32:10.085Z,10.07
2023-03-26T16:34:49.491Z,10.11
2023-03-26T16:37:38.052Z,10.02
2023-03-26T16:40:23.771Z,9.70
2023-03-26T16:43:06.595Z,9.59
2023-03-26T16:45:55.526Z,9.41
2023-03-26T16:48:27.845Z,9.23
2023-03-26T16:51:10.619Z,9.10
2023-03-26T16:53:52.146Z,8.93
2023-03-26T16:56:48.947Z,8.78
2023-03-26T17:00:05.203Z,8.58
2023-03-26T17:02:52.555Z,8.42
2023-03-26T17:05:34.364Z,8.32
2023-03-26T17:08:36.265Z,8.22
2023-03-26T17:11:18.920Z,8.13
2023-03-26T17:14:30.544Z,8.04
2023-03-26T17:17:37.012Z,7.94
2023-03-26T17:20:33.453Z,7.85
2023-03-26T17:23:05.760Z,7.79
2023-03-26T17:26:00.028Z,7.82
2023-03-26T17:29:06.345Z,7.76
2023-03-26T17:31:45.069Z,7.63
2023-03-26T17:34:46.747Z,7.58
2023-03-26T17:37:17.077Z,7.52
2023-03-26T17:39:46.941Z,7.42
2023-03-26T17:42:25.218Z,7.35
2023-03-26T17:44:57.865Z,7.36
2023-03-26T17:47:47.140Z,7.25
2023-03-26T17:50:18.540Z,7.24
2023-03-26T17:53:33.738Z,7.19
2023-03-26T17:56:06.756Z,7.25
2023-03-26T17:58:58.821Z,7.27
2023-03-26T18:01:41.586Z,7.29
2023-03-26T18:04:19.779Z,7.31
2023-03-26T18:07:00.726Z,7.33
2023-03-26T18:09:43.398Z,7.27
2023-03-26T18:12:38.173Z,7.25
2023-03-26T18:15:36.302Z,7.18
2023-03-26T18:18:20.104Z,7.08
2023-03-26T18:20:49.854Z,6.99
2023-03-26T18:23:34.656Z,6.96
2023-03-26T18:26:20.265Z,6.98
2023-03-26T18:28:54.545Z,6.91
2023-03-26T18:31:26.566Z,7.02
2023-03-26T18:34:03.477Z,7.04
2023-03-26T18:36:31.256Z,7.02
2023-03-26T18:38:59.820Z,7.06
2023-03-26T18:41:42.029Z,7.08
2023-03-26T18:44:18.174Z,7.15
2023-03-26T18:46:46.170Z,7.17
2023-03-26T18:49:16.196Z,7.15
2023-03-26T18:51:56.160Z,7.15
2023-03-26T18:54:30.160Z,7.15
2023-03-26T18:56:59.123Z,7.17
2023-03-26T18:59:35.288Z,7.20
2023-03-26T19:02:07.032Z,7.11
2023-03-26T19:04:37.073Z,7.02
2023-03-26T19:07:08.698Z,6.99
2023-03-26T19:09:37.662Z,6.91
2023-03-26T19:12:08.836Z,6.89
2023-03-26T19:15:02.524Z,6.86
2023-03-26T19:17:34.701Z,6.84
2023-03-26T19:20:03.824Z,6.81
2023-03-26T19:22:31.684Z,6.79
2023-03-26T19:25:02.218Z,6.71
2023-03-26T19:27:29.659Z,6.75
2023-03-26T19:29:58.130Z,6.74
2023-03-26T19:32:34.793Z,6.60
2023-03-26T19:35:04.617Z,6.69
2023-03-26T19:37:32.605Z,6.74
2023-03-26T19:40:14.441Z,6.83
2023-03-26T19:42:45.010Z,6.79
2023-03-26T19:45:20.646Z,6.91
2023-03-26T19:47:57.331Z,6.95
2023-03-26T19:50:34.434Z,7.03
2023-03-26T19:53:19.048Z,7.03
2023-03-26T19:55:58.121Z,7.02
2023-03-26T19:58:27.355Z,7.06
2023-03-26T20:00:56.652Z,6.97
2023-03-26T20:03:30.508Z,7.05
2023-03-26T20:05:58.264Z,6.99
2023-03-26T20:08:28.472Z,7.07
2023-03-26T20:10:57.387Z,7.09
2023-03-26T20:13:24.982Z,7.06
2023-03-26T20:16:05.727Z,7.11
2023-03-26T20:18:35.005Z,7.05
2023-03-26T20:21:08.942Z,6.86
2023-03-26T20:23:36.288Z,6.89
2023-03-26T20:26:03.842Z,6.74
2023-03-26T20:28:38.742Z,6.79
2023-03-26T20:31:26.915Z,6.86
2023-03-26T20:33:54.787Z,6.86
2023-03-26T20:36:33.965Z,6.88
2023-03-26T20:39:08.191Z,6.88
2023-03-26T20:41:43.060Z,6.95
2023-03-26T20:44:15.879Z,7.01
2023-03-26T20:46:44.886Z,6.98
2023-03-26T20:49:12.791Z,6.94
2023-03-26T20:51:49.155Z,6.96
2023-03-26T20:54:21.731Z,6.98
2023-03-26T20:56:50.288Z,6.88
2023-03-26T20:59:22.502Z,6.82
2023-03-26T21:01:51.504Z,6.83
2023-03-26T21:04:20.901Z,6.88
2023-03-26T21:06:49.484Z,6.78
2023-03-26T21:09:19.407Z,6.84
2023-03-26T21:12:00.886Z,6.83
2023-03-26T21:14:41.550Z,6.74
2023-03-26T21:17:21.164Z,6.73
2023-03-26T21:19:49.555Z,6.63
2023-03-26T21:22:34.475Z,6.58
2023-03-26T21:25:11.916Z,6.61
2023-03-26T21:27:58.416Z,6.64
2023-03-26T21:30:26.258Z,6.58
2023-03-26T21:32:54.511Z,6.53
2023-03-26T21:35:22.395Z,6.58
2023-03-26T21:37:50.993Z,6.63
2023-03-26T21:40:19.436Z,6.68
2023-03-26T21:42:50.726Z,6.67
2023-03-26T21:45:19.255Z,6.66
2023-03-26T21:47:47.298Z,6.63
2023-03-26T21:50:21.957Z,6.63
2023-03-26T21:52:51.226Z,6.66
2023-03-26T21:55:21.960Z,6.68
2023-03-26T21:58:08.533Z,6.68
2023-03-26T22:01:03.924Z,6.57
2023-03-26T22:03:50.662Z,6.54
2023-03-26T22:06:51.499Z,6.65
2023-03-26T22:09:26.375Z,6.56
2023-03-26T22:12:02.258Z,6.53
2023-03-26T22:14:29.700Z,6.52
2023-03-26T22:17:05.542Z,6.59
2023-03-26T22:19:36.212Z,6.59
2023-03-26T22:22:09.126Z,6.58
2023-03-26T22:24:38.647Z,6.57
2023-03-26T22:27:07.450Z,6.58
2023-03-26T22:29:34.711Z,6.59
2023-03-26T22:32:03.730Z,6.62
2023-03-26T22:34:32.019Z,6.63
2023-03-26T22:37:00.433Z,6.60
2023-03-26T22:39:27.694Z,6.67
2023-03-26T22:41:58.079Z,6.65
2023-03-26T22:44:25.711Z,6.66
2023-03-26T22:46:54.656Z,6.61
2023-03-26T22:49:21.929Z,6.55
2023-03-26T22:51:50.559Z,6.51
2023-03-26T22:54:18.179Z,6.60
2023-03-26T22:56:46.005Z,6.63
2023-03-26T22:59:13.538Z,6.67
2023-03-26T23:01:41.643Z,6.64
2023-03-26T23:04:09.080Z,6.77
2023-03-26T23:06:37.124Z,6.77
2023-03-26T23:09:07.274Z,6.75
2023-03-26T23:11:35.106Z,6.71
2023-03-26T23:14:02.625Z,6.77
2023-03-26T23:16:31.932Z,6.79
2023-03-26T23:18:59.360Z,6.70
2023-03-26T23:21:27.109Z,6.67
2023-03-26T23:23:57.364Z,6.73
2023-03-26T23:26:25.013Z,6.71
2023-03-26T23:28:52.579Z,6.59
2023-03-26T23:31:22.559Z,6.67
2023-03-26T23:33:50.512Z,6.66
2023-03-26T23:36:19.589Z,6.66
2023-03-26T23:38:48.559Z,6.67
2023-03-26T23:41:18.852Z,6.65
2023-03-26T23:43:55.758Z,6.76
2023-03-26T23:46:30.499Z,6.73
2023-03-26T23:49:00.352Z,6.68
2023-03-26T23:51:30.391Z,6.70
2023-03-26T23:53:57.887Z,6.65
2023-03-26T23:56:27.848Z,6.54
2023-03-26T23:58:55.366Z,6.40
